Havre, MT

10:05 AM MDT on June 02, 2015 (GMT -0600)
Lewistown Municipal | | Change Station
CLOSE
Current Station
Airport
Location: Lewistown,
Elevation: 4167 ft
Nearby Weather Stations

Elev 4167 ft 47.05 °N, 109.47 °W | Updated 11 minutes ago

Overcast
Overcast
55 °F
Feels Like 55 °F
N
14
Wind Variable Wind from ESE

Today
High -- | Low -- °F
--% Chance of Precip.
Yesterday
High -- | Low -- °F
Precip. -- in
5:20 AM 9:13 PM
Full, 100% visible
Pressure 29.88 in
Visibility 10.0 miles
Clouds Overcast 900 ft
Dew Point 49 °F
Humidity 80%
Rainfall 0.00 in
Snow Depth Not available.
UV 2 out of 12
Pollen .80 out of 12
Air Quality Not available.
Flu Activity Sporadic
METAR KLWT 021554Z AUTO 11012KT 10SM OVC009 13/09 A2993 RMK AO2 SLP119 T01280094

More Conditions Fewer Conditions

Pressure 29.88 in
Visibility 10.0 miles
Clouds Overcast 900 ft
Dew Point 49 °F
Humidity 80%
Rainfall 0.00 in
Snow Depth Not available.
UV 2 out of 12
Pollen .80 out of 12
Air Quality Not available.
Flu Activity Sporadic
METAR KLWT 021554Z AUTO 11012KT 10SM OVC009 13/09 A2993 RMK AO2 SLP119 T01280094

More Conditions Fewer Conditions

10-Day Weather Forecast

Almanac

Astronomy

Jun. 02, 2015 Rise Set
Actual Time
Civil Twilight
Nautical Twilight
Astronomical Twilight
Moon
Length of Visible Light
Length of Day
Tomorrow will be .
, % of the Moon is Illuminated

Today's Extremes

State Highs State Lows

Community

WunderPhotos

Upload Photos

1,825,972 photos uploaded!

WunderBlogs® & News

Nearby

Air Quality

  Air Quality AQ Index Pollutant
Not available.

Snow Depth

Station Depth Elevation

Earthquake Activity

City Distance Mag. Time & Date
Minimum magnitude displayed is 2.5.

Coastal Water Temperatures

Place Temperature

Stations

Nearby Weather Stations

Station Location Temp. Windchill Dew Point Humidity Wind Precip. Elev Updated Type